< < Back
Terminal Aerodrome Forecast


Current Version              Previous Versions:   1  2  3  4  5  6  7  8  9  

Terminal Aerodrome Forecast

559
FTUS42 KFFC 021730
TAFPDK
TAF
KPDK 021730Z 0218/0318 32005KT P6SM OVC015
      TEMPO 0218/0221 SCT015 BKN040
     FM022100 31006KT P6SM OVC025
     FM030600 04003KT 3SM BR OVC008
     FM031000 07004KT 2SM -RA BR OVC004
     FM031600 10007KT 2SM BR OVC004=



Latest METAR

121
SAUS70 KWBC 022000 RRE
MTRPDK
METAR KPDK 021953Z 26009KT 10SM SCT110 16/09 A3025 RMK AO2 SLP246
T01610089


USA.gov is the U.S. government's official web portal to all federal, state and local government web resources and services.